createdAt,value
2019-05-20T00:00:49.721Z,12.90
2019-05-20T00:03:19.218Z,13.00
2019-05-20T00:05:48.837Z,12.90
2019-05-20T00:08:18.317Z,12.80
2019-05-20T00:10:47.944Z,12.90
2019-05-20T00:13:17.579Z,12.80
2019-05-20T00:15:47.265Z,12.90
2019-05-20T00:18:16.762Z,12.90
2019-05-20T00:20:46.253Z,12.70
2019-05-20T00:23:15.748Z,12.60
2019-05-20T00:25:45.355Z,12.50
2019-05-20T00:28:14.919Z,12.50
2019-05-20T00:30:44.419Z,12.50
2019-05-20T00:33:13.944Z,12.50
2019-05-20T00:35:43.413Z,12.40
2019-05-20T00:38:12.930Z,12.40
2019-05-20T00:40:42.370Z,12.40
2019-05-20T00:43:11.875Z,12.40
2019-05-20T00:45:41.999Z,12.40
2019-05-20T00:48:11.685Z,12.30
2019-05-20T00:50:41.182Z,12.20
2019-05-20T00:53:10.681Z,12.30
2019-05-20T00:55:41.008Z,12.30
2019-05-20T00:58:10.586Z,12.20
2019-05-20T01:00:40.811Z,12.20
2019-05-20T01:03:10.317Z,12.20
2019-05-20T01:05:39.918Z,12.10
2019-05-20T01:08:09.478Z,12.10
2019-05-20T01:10:39.112Z,12.00
2019-05-20T01:13:08.585Z,12.00
2019-05-20T01:15:38.075Z,12.00
2019-05-20T01:18:07.641Z,12.00
2019-05-20T01:20:37.203Z,12.00
2019-05-20T01:23:06.981Z,12.00
2019-05-20T01:25:36.488Z,11.90
2019-05-20T01:28:06.057Z,11.90
2019-05-20T01:30:35.740Z,11.80
2019-05-20T01:33:13.774Z,11.90
2019-05-20T01:35:36.525Z,12.00
2019-05-20T01:38:06.047Z,12.00
2019-05-20T01:40:35.537Z,12.00
2019-05-20T01:43:05.029Z,11.90
2019-05-20T01:45:34.520Z,11.80
2019-05-20T01:48:04.017Z,11.80
2019-05-20T01:50:33.495Z,11.80
2019-05-20T01:53:02.988Z,11.70
2019-05-20T01:55:32.828Z,11.70
2019-05-20T01:58:02.331Z,11.70
2019-05-20T02:00:31.810Z,11.70
2019-05-20T02:03:01.418Z,11.80
2019-05-20T02:05:30.910Z,11.70
2019-05-20T02:08:00.385Z,11.60
2019-05-20T02:10:29.879Z,11.60
2019-05-20T02:12:59.407Z,11.70
2019-05-20T02:15:30.563Z,11.70
2019-05-20T02:18:00.306Z,11.70
2019-05-20T02:20:29.835Z,11.60
2019-05-20T02:23:15.119Z,11.70
2019-05-20T02:25:49.570Z,11.50
2019-05-20T02:28:19.062Z,11.30
2019-05-20T02:30:48.582Z,11.20
2019-05-20T02:33:18.155Z,11.10
2019-05-20T02:35:47.940Z,11.00
2019-05-20T02:38:17.386Z,10.90
2019-05-20T02:40:47.132Z,10.90
2019-05-20T02:43:16.829Z,10.90
2019-05-20T02:45:46.447Z,11.00
2019-05-20T02:48:16.081Z,10.90
2019-05-20T02:50:45.644Z,11.00
2019-05-20T02:53:15.351Z,11.10
2019-05-20T02:55:45.037Z,11.10
2019-05-20T02:58:14.494Z,11.10
2019-05-20T03:00:43.972Z,11.10
2019-05-20T03:03:13.494Z,11.10
2019-05-20T03:05:43.065Z,11.20
2019-05-20T03:08:12.661Z,11.20
2019-05-20T03:10:42.300Z,11.20
2019-05-20T03:13:12.111Z,11.20
2019-05-20T03:15:41.730Z,11.20
2019-05-20T03:18:11.340Z,11.10
2019-05-20T03:20:40.926Z,11.10
2019-05-20T03:23:10.547Z,11.00
2019-05-20T03:25:40.043Z,10.90
2019-05-20T03:28:09.613Z,10.80
2019-05-20T03:30:39.104Z,10.80
2019-05-20T03:33:08.640Z,10.70
2019-05-20T03:35:38.289Z,10.70
2019-05-20T03:38:07.799Z,10.70
2019-05-20T03:40:37.310Z,10.70
2019-05-20T03:43:06.798Z,10.70
2019-05-20T03:45:36.306Z,10.70
2019-05-20T03:48:06.022Z,10.60
2019-05-20T03:50:35.556Z,10.70
2019-05-20T03:53:05.225Z,10.70
2019-05-20T03:55:34.749Z,10.80
2019-05-20T03:58:04.410Z,10.90
2019-05-20T04:00:47.976Z,11.10
2019-05-20T04:03:17.872Z,11.20
2019-05-20T04:05:47.479Z,11.30
2019-05-20T04:08:17.112Z,11.50
2019-05-20T04:10:46.728Z,11.60
2019-05-20T04:13:16.319Z,11.70
2019-05-20T04:15:46.058Z,11.80
2019-05-20T04:18:15.934Z,11.80
2019-05-20T04:20:45.520Z,11.80
2019-05-20T04:23:15.087Z,11.80
2019-05-20T04:25:44.657Z,11.70
2019-05-20T04:28:14.226Z,11.70
2019-05-20T04:30:43.695Z,11.70
2019-05-20T04:33:13.214Z,11.80
2019-05-20T04:35:42.699Z,11.90
2019-05-20T04:38:12.213Z,11.90
2019-05-20T04:40:42.043Z,11.90
2019-05-20T04:43:11.540Z,11.90
2019-05-20T04:45:41.031Z,11.90
2019-05-20T04:48:13.744Z,11.80
2019-05-20T04:50:41.767Z,11.90
2019-05-20T04:53:11.705Z,11.90
2019-05-20T04:55:43.304Z,12.00
2019-05-20T04:58:12.778Z,11.90
2019-05-20T05:00:55.988Z,11.90
2019-05-20T05:03:25.604Z,11.90
2019-05-20T05:05:55.410Z,11.90
2019-05-20T05:08:25.162Z,12.00
2019-05-20T05:10:55.413Z,12.20
2019-05-20T05:13:25.548Z,12.30
2019-05-20T05:15:55.451Z,12.30
2019-05-20T05:18:25.103Z,12.30
2019-05-20T05:20:55.044Z,12.20
2019-05-20T05:23:24.792Z,12.20
2019-05-20T05:25:54.654Z,12.20
2019-05-20T05:28:24.277Z,12.30
2019-05-20T05:30:54.401Z,12.30
2019-05-20T05:33:24.032Z,12.30
2019-05-20T05:35:53.987Z,12.30
2019-05-20T05:38:23.805Z,12.30
2019-05-20T05:40:53.332Z,12.30
2019-05-20T05:43:23.038Z,12.40
2019-05-20T05:45:52.617Z,12.50
2019-05-20T05:48:22.107Z,12.50
2019-05-20T05:50:51.631Z,12.50
2019-05-20T05:53:21.287Z,12.60
2019-05-20T05:55:50.885Z,12.60
2019-05-20T05:58:20.621Z,12.70
2019-05-20T06:00:50.322Z,12.70
2019-05-20T06:03:19.980Z,12.80
2019-05-20T06:05:49.498Z,12.80
2019-05-20T06:08:19.298Z,12.90
2019-05-20T06:10:48.880Z,12.90
2019-05-20T06:13:18.361Z,12.90
2019-05-20T06:15:48.094Z,13.00
2019-05-20T06:18:17.665Z,13.00
2019-05-20T06:20:47.448Z,13.00
2019-05-20T06:23:16.921Z,13.10
2019-05-20T06:25:46.420Z,13.20
2019-05-20T06:28:15.982Z,13.30
2019-05-20T06:30:46.797Z,13.30
2019-05-20T06:33:16.332Z,13.30
2019-05-20T06:35:46.037Z,13.40
2019-05-20T06:38:33.685Z,13.40
2019-05-20T06:41:05.255Z,13.50
2019-05-20T06:43:34.997Z,13.50
2019-05-20T06:46:04.878Z,13.50
2019-05-20T06:48:34.426Z,13.60
2019-05-20T06:51:04.447Z,13.70
2019-05-20T06:53:34.260Z,13.80
2019-05-20T06:56:03.763Z,13.80
2019-05-20T06:58:33.351Z,13.80
2019-05-20T07:01:03.011Z,13.90
2019-05-20T07:03:33.571Z,13.90
2019-05-20T07:06:03.392Z,13.90
2019-05-20T07:08:32.938Z,14.00
2019-05-20T07:11:02.700Z,13.90
2019-05-20T07:13:32.184Z,14.00
2019-05-20T07:16:02.071Z,14.00
2019-05-20T07:18:31.603Z,14.20
2019-05-20T07:21:01.139Z,14.30
2019-05-20T07:23:31.132Z,14.30
2019-05-20T07:26:00.638Z,14.30
2019-05-20T07:28:30.395Z,14.30
2019-05-20T07:31:00.206Z,14.30
2019-05-20T07:33:30.045Z,14.30
2019-05-20T07:35:59.639Z,14.50
2019-05-20T07:38:29.163Z,14.50
2019-05-20T07:40:58.735Z,14.60
2019-05-20T07:43:28.652Z,14.50
2019-05-20T07:45:58.946Z,14.60
2019-05-20T07:48:28.747Z,14.60
2019-05-20T07:50:58.671Z,14.70
2019-05-20T07:53:29.471Z,14.70
2019-05-20T07:56:18.349Z,14.60
2019-05-20T07:58:52.800Z,14.60
2019-05-20T08:01:22.425Z,14.70
2019-05-20T08:03:52.049Z,14.70
2019-05-20T08:06:21.813Z,14.70
2019-05-20T08:08:51.862Z,14.80
2019-05-20T08:11:21.632Z,14.90
2019-05-20T08:13:51.220Z,15.00
2019-05-20T08:16:22.564Z,15.10
2019-05-20T08:18:52.665Z,15.00
2019-05-20T08:21:22.154Z,15.00
2019-05-20T08:23:51.850Z,15.10
2019-05-20T08:26:21.528Z,15.20
2019-05-20T08:28:51.128Z,15.30
2019-05-20T08:31:20.708Z,15.30
2019-05-20T08:33:50.271Z,15.30
2019-05-20T08:36:21.623Z,15.40
2019-05-20T08:38:51.126Z,15.50
2019-05-20T08:41:22.667Z,15.50
2019-05-20T08:43:52.471Z,15.50
2019-05-20T08:46:21.981Z,15.40
2019-05-20T08:48:51.711Z,15.40
2019-05-20T08:51:21.436Z,15.40
2019-05-20T08:53:51.049Z,15.30
2019-05-20T08:56:20.618Z,15.30
2019-05-20T08:58:50.112Z,15.50
2019-05-20T09:01:20.867Z,15.70
2019-05-20T09:03:50.398Z,15.90
2019-05-20T09:06:20.964Z,16.00
2019-05-20T09:08:50.713Z,16.00
2019-05-20T09:11:20.323Z,16.10
2019-05-20T09:13:49.799Z,16.00
2019-05-20T09:16:21.417Z,16.10
2019-05-20T09:18:50.830Z,16.00
2019-05-20T09:21:20.417Z,15.90
2019-05-20T09:23:49.891Z,15.90
2019-05-20T09:26:19.401Z,15.80
2019-05-20T09:28:48.939Z,15.90
2019-05-20T09:31:19.423Z,16.00
2019-05-20T09:33:48.971Z,16.10
2019-05-20T09:36:18.985Z,16.10
2019-05-20T09:38:48.498Z,16.30
2019-05-20T09:41:18.020Z,16.30
2019-05-20T09:43:47.562Z,16.30
2019-05-20T09:46:17.142Z,16.30
2019-05-20T09:48:48.446Z,16.40
2019-05-20T09:51:17.927Z,16.40
2019-05-20T09:53:47.769Z,16.40
2019-05-20T09:56:17.934Z,16.30
2019-05-20T09:58:48.094Z,16.20
2019-05-20T10:01:19.257Z,16.10
2019-05-20T10:03:48.824Z,15.90
2019-05-20T10:06:18.387Z,15.90
2019-05-20T10:08:47.951Z,15.90
2019-05-20T10:11:17.447Z,16.00
2019-05-20T10:13:47.089Z,16.10
2019-05-20T10:16:16.571Z,16.10
2019-05-20T10:18:46.405Z,16.10
2019-05-20T10:21:15.951Z,16.00
2019-05-20T10:23:45.433Z,16.00
2019-05-20T10:26:15.227Z,16.10
2019-05-20T10:28:47.441Z,16.10
2019-05-20T10:31:16.288Z,16.20
2019-05-20T10:33:46.026Z,16.30
2019-05-20T10:36:15.672Z,16.30
2019-05-20T10:38:58.161Z,16.40
2019-05-20T10:41:16.641Z,16.50
2019-05-20T10:43:46.313Z,16.60
2019-05-20T10:46:16.068Z,16.50
2019-05-20T10:48:45.750Z,16.50
2019-05-20T10:51:15.497Z,16.50
2019-05-20T10:53:45.126Z,16.60
2019-05-20T10:56:15.220Z,16.70
2019-05-20T10:58:45.057Z,16.90
2019-05-20T11:01:14.656Z,17.10
2019-05-20T11:03:44.223Z,17.20
2019-05-20T11:06:14.087Z,17.20
2019-05-20T11:08:43.814Z,17.20
2019-05-20T11:11:14.269Z,17.30
2019-05-20T11:13:44.643Z,17.60
2019-05-20T11:16:14.137Z,17.80
2019-05-20T11:18:43.621Z,17.90
2019-05-20T11:21:13.050Z,17.80
2019-05-20T11:23:42.530Z,17.90
2019-05-20T11:26:12.326Z,18.00
2019-05-20T11:28:41.903Z,17.80
2019-05-20T11:31:11.836Z,17.80
2019-05-20T11:33:41.747Z,18.00
2019-05-20T11:36:11.377Z,18.00
2019-05-20T11:38:40.861Z,18.00
2019-05-20T11:41:11.075Z,18.10
2019-05-20T11:43:40.711Z,18.10
2019-05-20T11:46:10.420Z,18.20
2019-05-20T11:48:39.937Z,18.00
2019-05-20T11:51:09.809Z,18.10
2019-05-20T11:53:39.857Z,18.20
2019-05-20T11:56:11.993Z,18.30
2019-05-20T11:58:41.099Z,18.40
2019-05-20T12:01:10.631Z,18.30
2019-05-20T12:03:40.105Z,18.40
2019-05-20T12:06:10.401Z,18.40
2019-05-20T12:08:39.944Z,18.80
2019-05-20T12:11:09.610Z,19.00
2019-05-20T12:13:39.535Z,18.90
2019-05-20T12:16:09.787Z,18.80
2019-05-20T12:18:39.367Z,18.90
2019-05-20T12:21:09.562Z,19.00
2019-05-20T12:23:39.165Z,18.90
2019-05-20T12:26:08.864Z,18.60
2019-05-20T12:28:38.330Z,18.40
2019-05-20T12:31:08.096Z,18.20
2019-05-20T12:33:37.998Z,18.40
2019-05-20T12:36:07.648Z,18.30
2019-05-20T12:38:37.224Z,18.40
2019-05-20T12:41:06.993Z,18.50
2019-05-20T12:43:36.489Z,18.70
2019-05-20T12:46:06.104Z,18.70
2019-05-20T12:48:35.606Z,18.50
2019-05-20T12:51:05.518Z,18.50
2019-05-20T12:53:35.172Z,18.50
2019-05-20T12:56:04.644Z,18.80
2019-05-20T12:58:37.426Z,19.00
2019-05-20T13:01:07.112Z,19.20
2019-05-20T13:03:36.660Z,19.60
2019-05-20T13:06:06.319Z,20.10
2019-05-20T13:08:36.199Z,20.40
2019-05-20T13:11:07.664Z,20.30
2019-05-20T13:13:37.223Z,20.00
2019-05-20T13:16:06.727Z,20.00
2019-05-20T13:18:36.954Z,19.90
2019-05-20T13:21:06.843Z,20.10
2019-05-20T13:23:36.646Z,20.10
2019-05-20T13:26:06.622Z,20.10
2019-05-20T13:28:36.913Z,20.10
2019-05-20T13:31:06.452Z,20.30
2019-05-20T13:33:35.947Z,20.30
2019-05-20T13:36:05.760Z,20.50
2019-05-20T13:38:35.253Z,20.70
2019-05-20T13:41:05.657Z,20.80
2019-05-20T13:43:35.404Z,20.50
2019-05-20T13:46:05.023Z,19.80
2019-05-20T13:48:34.537Z,19.30
2019-05-20T13:51:04.078Z,19.00
2019-05-20T13:53:33.625Z,18.50
2019-05-20T13:56:03.234Z,18.50
2019-05-20T13:58:32.695Z,18.70
2019-05-20T14:01:03.004Z,18.60
2019-05-20T14:03:32.818Z,18.40
2019-05-20T14:06:02.475Z,18.40
2019-05-20T14:08:32.204Z,18.50
2019-05-20T14:11:04.798Z,18.60
2019-05-20T14:13:32.914Z,18.80
2019-05-20T14:16:02.605Z,19.00
2019-05-20T14:18:32.184Z,19.00
2019-05-20T14:21:02.345Z,19.10
2019-05-20T14:23:31.880Z,19.10
2019-05-20T14:26:02.128Z,19.10
2019-05-20T14:28:31.820Z,19.10
2019-05-20T14:31:05.630Z,19.10
2019-05-20T14:33:33.180Z,19.00
2019-05-20T14:36:03.129Z,18.70
2019-05-20T14:38:32.862Z,18.50
2019-05-20T14:41:02.675Z,18.20
2019-05-20T14:43:33.010Z,18.10
2019-05-20T14:46:02.721Z,18.20
2019-05-20T14:48:32.234Z,18.20
2019-05-20T14:51:02.758Z,18.20
2019-05-20T14:53:32.266Z,18.10
2019-05-20T14:56:01.883Z,18.20
2019-05-20T14:58:31.597Z,18.10
2019-05-20T15:01:01.267Z,18.10
2019-05-20T15:03:31.101Z,18.00
2019-05-20T15:06:00.885Z,17.90
2019-05-20T15:08:34.335Z,17.90
2019-05-20T15:11:02.572Z,17.80
2019-05-20T15:13:32.192Z,17.80
2019-05-20T15:16:02.058Z,17.60
2019-05-20T15:18:31.555Z,17.50
2019-05-20T15:21:01.307Z,17.40
2019-05-20T15:23:30.865Z,17.50
2019-05-20T15:26:01.671Z,17.40
2019-05-20T15:28:31.235Z,17.30
2019-05-20T15:31:00.763Z,17.30
2019-05-20T15:33:30.349Z,17.30
2019-05-20T15:35:59.940Z,17.40
2019-05-20T15:38:29.634Z,17.50
2019-05-20T15:40:59.374Z,17.50
2019-05-20T15:43:29.742Z,17.50
2019-05-20T15:45:59.716Z,17.40
2019-05-20T15:48:29.878Z,17.40
2019-05-20T15:51:00.852Z,17.40
2019-05-20T15:53:30.542Z,17.20
2019-05-20T15:56:00.999Z,17.00
2019-05-20T15:58:30.602Z,17.00
2019-05-20T16:01:00.618Z,17.00
2019-05-20T16:03:30.123Z,17.00
2019-05-20T16:06:00.274Z,17.10
2019-05-20T16:08:29.953Z,17.10
2019-05-20T16:10:59.724Z,17.10
2019-05-20T16:13:29.449Z,17.10
2019-05-20T16:15:58.950Z,17.00
2019-05-20T16:18:28.630Z,17.10
2019-05-20T16:20:58.141Z,17.10
2019-05-20T16:23:27.843Z,17.10
2019-05-20T16:25:57.477Z,17.10
2019-05-20T16:28:27.220Z,17.00
2019-05-20T16:30:56.850Z,17.00
2019-05-20T16:33:26.387Z,17.00
2019-05-20T16:35:56.131Z,16.90
2019-05-20T16:38:25.637Z,16.90
2019-05-20T16:40:55.241Z,16.80
2019-05-20T16:43:25.010Z,16.80
2019-05-20T16:45:54.823Z,16.80
2019-05-20T16:48:24.514Z,16.70
2019-05-20T16:50:54.037Z,16.70
2019-05-20T16:53:23.696Z,16.70
2019-05-20T16:55:53.735Z,16.80
2019-05-20T16:58:23.351Z,16.70
2019-05-20T17:00:52.873Z,16.70
2019-05-20T17:03:22.376Z,16.60
2019-05-20T17:05:52.278Z,16.60
2019-05-20T17:08:21.860Z,16.50
2019-05-20T17:10:51.417Z,16.50
2019-05-20T17:13:20.952Z,16.40
2019-05-20T17:15:50.484Z,16.50
2019-05-20T17:18:20.106Z,16.50
2019-05-20T17:20:49.687Z,16.50
2019-05-20T17:23:19.363Z,16.50
2019-05-20T17:25:50.797Z,16.50
2019-05-20T17:28:20.474Z,16.50
2019-05-20T17:30:50.009Z,16.40
2019-05-20T17:33:19.641Z,16.40
2019-05-20T17:35:49.257Z,16.50
2019-05-20T17:38:19.027Z,16.50
2019-05-20T17:40:48.579Z,16.50
2019-05-20T17:43:20.151Z,16.60
2019-05-20T17:45:49.573Z,16.60
2019-05-20T17:48:19.223Z,16.50
2019-05-20T17:50:48.977Z,16.60
2019-05-20T17:53:18.551Z,16.40
2019-05-20T17:55:48.135Z,16.30
2019-05-20T17:58:17.741Z,16.40
2019-05-20T18:00:47.262Z,16.40
2019-05-20T18:03:16.941Z,16.50
2019-05-20T18:05:47.718Z,16.40
2019-05-20T18:08:17.306Z,16.40
2019-05-20T18:10:47.102Z,16.40
2019-05-20T18:13:18.864Z,16.40
2019-05-20T18:15:48.471Z,16.40
2019-05-20T18:18:18.774Z,16.50
2019-05-20T18:20:48.445Z,16.50
2019-05-20T18:23:18.620Z,16.50
2019-05-20T18:25:48.232Z,16.50
2019-05-20T18:28:17.715Z,16.50
2019-05-20T18:30:48.496Z,16.50
2019-05-20T18:33:18.272Z,16.50
2019-05-20T18:35:48.635Z,16.40
2019-05-20T18:38:18.213Z,16.40
2019-05-20T18:40:47.949Z,16.30
2019-05-20T18:43:17.578Z,16.30
2019-05-20T18:45:47.791Z,16.30
2019-05-20T18:48:17.607Z,16.30
2019-05-20T18:50:47.117Z,16.30
2019-05-20T18:53:16.840Z,16.30
2019-05-20T18:55:46.905Z,16.30
2019-05-20T18:58:16.585Z,16.30
2019-05-20T19:00:46.447Z,16.30
2019-05-20T19:03:16.840Z,16.30
2019-05-20T19:05:46.895Z,16.30
2019-05-20T19:08:17.131Z,16.30
2019-05-20T19:10:46.939Z,16.20
2019-05-20T19:13:16.786Z,16.30
2019-05-20T19:15:47.348Z,16.20
2019-05-20T19:18:17.407Z,16.30
2019-05-20T19:20:47.209Z,16.30
2019-05-20T19:23:17.177Z,16.30
2019-05-20T19:25:46.747Z,16.30
2019-05-20T19:28:16.546Z,16.30
2019-05-20T19:30:46.119Z,16.30
2019-05-20T19:33:17.201Z,16.30
2019-05-20T19:35:46.789Z,16.30
2019-05-20T19:38:16.939Z,16.30
2019-05-20T19:40:46.931Z,16.20
2019-05-20T19:43:16.830Z,16.30
2019-05-20T19:45:46.789Z,16.30
2019-05-20T19:48:17.267Z,16.30
2019-05-20T19:50:47.115Z,16.30
2019-05-20T19:53:16.634Z,16.20
2019-05-20T19:55:46.542Z,16.20
2019-05-20T19:58:16.132Z,16.20
2019-05-20T20:00:45.905Z,16.10
2019-05-20T20:03:15.459Z,16.10
2019-05-20T20:05:45.223Z,16.10
2019-05-20T20:08:14.840Z,16.00
2019-05-20T20:10:44.657Z,16.00
2019-05-20T20:13:14.326Z,16.00
2019-05-20T20:15:44.492Z,16.10
2019-05-20T20:18:14.409Z,16.00
2019-05-20T20:20:44.162Z,16.00
2019-05-20T20:23:14.940Z,15.90
2019-05-20T20:25:45.130Z,16.00
2019-05-20T20:28:14.912Z,16.00
2019-05-20T20:30:44.628Z,15.90
2019-05-20T20:33:14.213Z,15.90
2019-05-20T20:35:43.722Z,15.90
2019-05-20T20:38:13.426Z,15.90
2019-05-20T20:40:43.009Z,15.80
2019-05-20T20:43:12.538Z,15.80
2019-05-20T20:45:42.128Z,15.80
2019-05-20T20:48:11.715Z,15.80
2019-05-20T20:50:41.258Z,15.80
2019-05-20T20:53:12.140Z,15.80
2019-05-20T20:55:41.704Z,15.80
2019-05-20T20:58:11.259Z,15.80
2019-05-20T21:00:40.742Z,15.80
2019-05-20T21:03:10.322Z,15.70
2019-05-20T21:05:40.024Z,15.70
2019-05-20T21:08:09.988Z,15.70
2019-05-20T21:10:40.399Z,15.60
2019-05-20T21:13:11.274Z,15.60
2019-05-20T21:15:41.048Z,15.50
2019-05-20T21:18:12.241Z,15.50
2019-05-20T21:20:41.810Z,15.50
2019-05-20T21:23:11.796Z,15.40
2019-05-20T21:25:41.912Z,15.40
2019-05-20T21:28:11.883Z,15.30
2019-05-20T21:30:41.380Z,15.40
2019-05-20T21:33:10.878Z,15.40
2019-05-20T21:35:40.510Z,15.40
2019-05-20T21:38:10.163Z,15.40
2019-05-20T21:40:39.770Z,15.30
2019-05-20T21:43:09.399Z,15.30
2019-05-20T21:45:38.885Z,15.30
2019-05-20T21:48:08.655Z,15.30
2019-05-20T21:50:38.296Z,15.30
2019-05-20T21:53:07.793Z,15.30
2019-05-20T21:55:37.305Z,15.30
2019-05-20T21:58:06.779Z,15.30
2019-05-20T22:00:55.548Z,15.20
2019-05-20T22:03:25.634Z,15.30
2019-05-20T22:05:55.374Z,15.20
2019-05-20T22:08:25.243Z,15.20
2019-05-20T22:10:55.099Z,15.20
2019-05-20T22:13:24.851Z,15.30
2019-05-20T22:15:54.573Z,15.20
2019-05-20T22:18:24.173Z,15.20
2019-05-20T22:20:53.661Z,15.20
2019-05-20T22:23:28.072Z,15.20
2019-05-20T22:25:57.808Z,15.20
2019-05-20T22:28:27.493Z,15.20
2019-05-20T22:30:57.134Z,15.10
2019-05-20T22:33:40.227Z,15.10
2019-05-20T22:35:57.942Z,15.10
2019-05-20T22:38:27.901Z,15.00
2019-05-20T22:40:57.521Z,15.00
2019-05-20T22:43:27.193Z,15.00
2019-05-20T22:45:56.827Z,15.00
2019-05-20T22:48:26.363Z,15.00
2019-05-20T22:50:55.887Z,15.00
2019-05-20T22:53:25.463Z,15.00
2019-05-20T22:55:55.074Z,14.90
2019-05-20T22:58:24.642Z,14.90
2019-05-20T23:00:54.121Z,15.00
2019-05-20T23:03:23.642Z,14.90
2019-05-20T23:05:53.168Z,14.90
2019-05-20T23:08:22.720Z,14.90
2019-05-20T23:10:52.385Z,14.90
2019-05-20T23:13:21.868Z,14.90
2019-05-20T23:15:51.407Z,14.80
2019-05-20T23:18:21.077Z,14.90
2019-05-20T23:20:50.633Z,14.80
2019-05-20T23:23:20.168Z,14.80
2019-05-20T23:25:52.701Z,14.70
2019-05-20T23:28:21.062Z,14.70
2019-05-20T23:30:50.561Z,14.70
2019-05-20T23:33:20.098Z,14.60
2019-05-20T23:35:49.548Z,14.70
2019-05-20T23:38:19.357Z,14.60
2019-05-20T23:40:48.855Z,14.70
2019-05-20T23:43:18.380Z,14.60
2019-05-20T23:45:48.038Z,14.60
2019-05-20T23:48:18.748Z,14.50
2019-05-20T23:50:48.430Z,14.50
2019-05-20T23:53:17.934Z,14.50
2019-05-20T23:55:47.423Z,14.40
2019-05-20T23:58:16.961Z,14.40
